sensor_id;sensor_type;location;lat;lon;timestamp;P1;durP1;ratioP1;P2;durP2;ratioP2
64395;SDS011;50717;53.360;6.290;2023-02-15T00:01:41;139.18;;;28.27;;
64395;SDS011;50717;53.360;6.290;2023-02-15T00:04:07;125.65;;;27.05;;
64395;SDS011;50717;53.360;6.290;2023-02-15T00:06:34;64.03;;;23.95;;
64395;SDS011;50717;53.360;6.290;2023-02-15T00:09:00;98.65;;;25.63;;
64395;SDS011;50717;53.360;6.290;2023-02-15T00:11:27;194.30;;;27.45;;
64395;SDS011;50717;53.360;6.290;2023-02-15T00:16:41;242.90;;;30.08;;
64395;SDS011;50717;53.360;6.290;2023-02-15T00:19:08;281.55;;;32.45;;
64395;SDS011;50717;53.360;6.290;2023-02-15T00:21:35;247.82;;;29.92;;
64395;SDS011;50717;53.360;6.290;2023-02-15T00:24:02;238.98;;;32.30;;
64395;SDS011;50717;53.360;6.290;2023-02-15T00:26:29;293.35;;;30.92;;
64395;SDS011;50717;53.360;6.290;2023-02-15T00:31:23;471.17;;;36.85;;
64395;SDS011;50717;53.360;6.290;2023-02-15T00:33:49;379.75;;;37.17;;
64395;SDS011;50717;53.360;6.290;2023-02-15T00:36:15;505.58;;;38.88;;
64395;SDS011;50717;53.360;6.290;2023-02-15T00:38:41;490.58;;;38.38;;
64395;SDS011;50717;53.360;6.290;2023-02-15T00:41:08;448.27;;;38.78;;
64395;SDS011;50717;53.360;6.290;2023-02-15T00:43:34;370.75;;;38.05;;
64395;SDS011;50717;53.360;6.290;2023-02-15T00:46:01;371.35;;;36.33;;
64395;SDS011;50717;53.360;6.290;2023-02-15T00:48:27;233.27;;;31.40;;
64395;SDS011;50717;53.360;6.290;2023-02-15T00:50:55;102.53;;;24.85;;
64395;SDS011;50717;53.360;6.290;2023-02-15T00:53:21;315.80;;;33.42;;
64395;SDS011;50717;53.360;6.290;2023-02-15T00:55:47;462.50;;;41.55;;
64395;SDS011;50717;53.360;6.290;2023-02-15T00:58:14;357.77;;;34.15;;
64395;SDS011;50717;53.360;6.290;2023-02-15T01:00:40;206.13;;;28.92;;
64395;SDS011;50717;53.360;6.290;2023-02-15T01:03:08;392.00;;;29.50;;
64395;SDS011;50717;53.360;6.290;2023-02-15T01:05:34;272.63;;;26.65;;
64395;SDS011;50717;53.360;6.290;2023-02-15T01:08:00;494.60;;;36.65;;
64395;SDS011;50717;53.360;6.290;2023-02-15T01:10:26;417.17;;;36.45;;
64395;SDS011;50717;53.360;6.290;2023-02-15T01:12:53;243.32;;;25.08;;
64395;SDS011;50717;53.360;6.290;2023-02-15T01:15:19;283.00;;;29.88;;
64395;SDS011;50717;53.360;6.290;2023-02-15T01:17:45;143.90;;;23.42;;
64395;SDS011;50717;53.360;6.290;2023-02-15T01:20:16;141.68;;;23.50;;
64395;SDS011;50717;53.360;6.290;2023-02-15T01:22:43;138.57;;;23.63;;
64395;SDS011;50717;53.360;6.290;2023-02-15T01:25:09;128.80;;;24.85;;
64395;SDS011;50717;53.360;6.290;2023-02-15T01:27:35;125.88;;;24.02;;
64395;SDS011;50717;53.360;6.290;2023-02-15T01:30:01;236.27;;;27.85;;
64395;SDS011;50717;53.360;6.290;2023-02-15T01:32:29;212.02;;;28.00;;
64395;SDS011;50717;53.360;6.290;2023-02-15T01:34:55;111.35;;;23.85;;
64395;SDS011;50717;53.360;6.290;2023-02-15T01:37:21;214.50;;;30.00;;
64395;SDS011;50717;53.360;6.290;2023-02-15T01:39:47;157.55;;;27.92;;
64395;SDS011;50717;53.360;6.290;2023-02-15T01:42:14;147.40;;;27.83;;
64395;SDS011;50717;53.360;6.290;2023-02-15T01:44:52;148.68;;;28.25;;
64395;SDS011;50717;53.360;6.290;2023-02-15T01:52:45;225.32;;;28.60;;
64395;SDS011;50717;53.360;6.290;2023-02-15T01:55:13;246.07;;;30.52;;
64395;SDS011;50717;53.360;6.290;2023-02-15T01:57:40;309.27;;;33.05;;
64395;SDS011;50717;53.360;6.290;2023-02-15T02:00:06;231.10;;;30.38;;
64395;SDS011;50717;53.360;6.290;2023-02-15T02:02:34;213.75;;;29.30;;
64395;SDS011;50717;53.360;6.290;2023-02-15T02:05:00;164.05;;;28.80;;
64395;SDS011;50717;53.360;6.290;2023-02-15T02:07:32;141.50;;;27.88;;
64395;SDS011;50717;53.360;6.290;2023-02-15T02:10:02;142.38;;;29.73;;
64395;SDS011;50717;53.360;6.290;2023-02-15T02:12:29;304.30;;;35.25;;
64395;SDS011;50717;53.360;6.290;2023-02-15T02:14:56;332.90;;;36.10;;
64395;SDS011;50717;53.360;6.290;2023-02-15T02:17:33;334.42;;;34.45;;
64395;SDS011;50717;53.360;6.290;2023-02-15T02:28:43;220.40;;;28.83;;
64395;SDS011;50717;53.360;6.290;2023-02-15T02:31:37;123.13;;;26.83;;
64395;SDS011;50717;53.360;6.290;2023-02-15T02:34:30;202.20;;;28.30;;
64395;SDS011;50717;53.360;6.290;2023-02-15T02:37:00;186.88;;;30.23;;
64395;SDS011;50717;53.360;6.290;2023-02-15T02:42:16;207.02;;;29.52;;
64395;SDS011;50717;53.360;6.290;2023-02-15T02:44:46;178.65;;;29.55;;
64395;SDS011;50717;53.360;6.290;2023-02-15T02:47:15;166.63;;;29.73;;
64395;SDS011;50717;53.360;6.290;2023-02-15T02:49:42;127.80;;;30.42;;
64395;SDS011;50717;53.360;6.290;2023-02-15T02:54:35;161.98;;;30.70;;
64395;SDS011;50717;53.360;6.290;2023-02-15T02:57:03;92.68;;;29.88;;
64395;SDS011;50717;53.360;6.290;2023-02-15T02:59:33;104.78;;;30.58;;
64395;SDS011;50717;53.360;6.290;2023-02-15T03:02:10;128.07;;;30.92;;
64395;SDS011;50717;53.360;6.290;2023-02-15T03:04:38;69.35;;;30.42;;
64395;SDS011;50717;53.360;6.290;2023-02-15T03:07:17;79.25;;;29.23;;
64395;SDS011;50717;53.360;6.290;2023-02-15T03:09:48;95.78;;;28.45;;
64395;SDS011;50717;53.360;6.290;2023-02-15T03:12:20;104.22;;;30.55;;
64395;SDS011;50717;53.360;6.290;2023-02-15T03:14:52;66.35;;;28.95;;
64395;SDS011;50717;53.360;6.290;2023-02-15T03:17:19;57.97;;;27.88;;
64395;SDS011;50717;53.360;6.290;2023-02-15T03:19:46;47.70;;;27.73;;
64395;SDS011;50717;53.360;6.290;2023-02-15T03:22:15;53.35;;;27.95;;
64395;SDS011;50717;53.360;6.290;2023-02-15T03:24:56;52.38;;;29.33;;
64395;SDS011;50717;53.360;6.290;2023-02-15T03:27:24;49.30;;;28.48;;
64395;SDS011;50717;53.360;6.290;2023-02-15T03:29:53;49.05;;;29.98;;
64395;SDS011;50717;53.360;6.290;2023-02-15T03:32:22;57.08;;;30.48;;
64395;SDS011;50717;53.360;6.290;2023-02-15T03:34:49;50.80;;;29.38;;
64395;SDS011;50717;53.360;6.290;2023-02-15T03:37:17;48.35;;;30.02;;
64395;SDS011;50717;53.360;6.290;2023-02-15T03:40:16;72.63;;;30.55;;
64395;SDS011;50717;53.360;6.290;2023-02-15T03:43:06;63.10;;;31.17;;
64395;SDS011;50717;53.360;6.290;2023-02-15T03:45:34;50.80;;;28.60;;
64395;SDS011;50717;53.360;6.290;2023-02-15T03:48:03;73.55;;;30.40;;
64395;SDS011;50717;53.360;6.290;2023-02-15T03:50:31;92.40;;;32.22;;
64395;SDS011;50717;53.360;6.290;2023-02-15T03:53:17;68.78;;;30.35;;
64395;SDS011;50717;53.360;6.290;2023-02-15T03:55:48;41.40;;;28.35;;
64395;SDS011;50717;53.360;6.290;2023-02-15T03:58:15;52.67;;;31.38;;
64395;SDS011;50717;53.360;6.290;2023-02-15T04:01:00;60.60;;;29.40;;
64395;SDS011;50717;53.360;6.290;2023-02-15T04:06:22;49.45;;;29.65;;
64395;SDS011;50717;53.360;6.290;2023-02-15T04:08:48;43.40;;;28.92;;
64395;SDS011;50717;53.360;6.290;2023-02-15T04:11:33;46.17;;;29.90;;
64395;SDS011;50717;53.360;6.290;2023-02-15T04:13:59;42.70;;;28.15;;
64395;SDS011;50717;53.360;6.290;2023-02-15T04:16:45;42.17;;;28.10;;
64395;SDS011;50717;53.360;6.290;2023-02-15T04:19:11;50.78;;;27.38;;
64395;SDS011;50717;53.360;6.290;2023-02-15T04:21:56;42.50;;;27.63;;
64395;SDS011;50717;53.360;6.290;2023-02-15T04:24:41;48.83;;;28.92;;
64395;SDS011;50717;53.360;6.290;2023-02-15T04:27:25;55.55;;;29.15;;
64395;SDS011;50717;53.360;6.290;2023-02-15T04:29:51;60.42;;;30.25;;
64395;SDS011;50717;53.360;6.290;2023-02-15T04:32:17;67.18;;;31.85;;
64395;SDS011;50717;53.360;6.290;2023-02-15T04:34:44;119.25;;;34.33;;
64395;SDS011;50717;53.360;6.290;2023-02-15T04:37:10;90.40;;;32.95;;
64395;SDS011;50717;53.360;6.290;2023-02-15T04:39:36;65.93;;;31.70;;
64395;SDS011;50717;53.360;6.290;2023-02-15T04:42:02;50.45;;;30.27;;
64395;SDS011;50717;53.360;6.290;2023-02-15T04:44:28;52.60;;;32.78;;
64395;SDS011;50717;53.360;6.290;2023-02-15T04:46:54;50.25;;;31.23;;
64395;SDS011;50717;53.360;6.290;2023-02-15T04:49:20;53.78;;;32.83;;
64395;SDS011;50717;53.360;6.290;2023-02-15T04:51:46;59.88;;;32.80;;
64395;SDS011;50717;53.360;6.290;2023-02-15T04:54:12;54.15;;;31.58;;
64395;SDS011;50717;53.360;6.290;2023-02-15T04:56:38;47.92;;;30.45;;
64395;SDS011;50717;53.360;6.290;2023-02-15T04:59:05;48.75;;;31.00;;
64395;SDS011;50717;53.360;6.290;2023-02-15T05:03:57;38.85;;;26.95;;
64395;SDS011;50717;53.360;6.290;2023-02-15T05:06:23;47.20;;;28.80;;
64395;SDS011;50717;53.360;6.290;2023-02-15T05:08:49;54.95;;;33.33;;
64395;SDS011;50717;53.360;6.290;2023-02-15T05:13:41;57.22;;;33.47;;
64395;SDS011;50717;53.360;6.290;2023-02-15T05:16:07;52.25;;;32.03;;
64395;SDS011;50717;53.360;6.290;2023-02-15T05:18:33;49.60;;;32.63;;
64395;SDS011;50717;53.360;6.290;2023-02-15T05:20:59;51.65;;;32.50;;
64395;SDS011;50717;53.360;6.290;2023-02-15T05:23:25;49.80;;;32.10;;
64395;SDS011;50717;53.360;6.290;2023-02-15T05:25:52;52.20;;;33.35;;
64395;SDS011;50717;53.360;6.290;2023-02-15T05:28:37;49.92;;;31.83;;
64395;SDS011;50717;53.360;6.290;2023-02-15T05:33:39;69.15;;;37.10;;
64395;SDS011;50717;53.360;6.290;2023-02-15T05:36:05;83.95;;;43.67;;
64395;SDS011;50717;53.360;6.290;2023-02-15T05:38:32;79.80;;;40.58;;
64395;SDS011;50717;53.360;6.290;2023-02-15T05:40:58;71.57;;;37.53;;
64395;SDS011;50717;53.360;6.290;2023-02-15T05:43:25;61.50;;;36.22;;
64395;SDS011;50717;53.360;6.290;2023-02-15T05:48:17;66.53;;;36.78;;
64395;SDS011;50717;53.360;6.290;2023-02-15T05:50:44;64.85;;;37.50;;
64395;SDS011;50717;53.360;6.290;2023-02-15T05:53:11;69.50;;;35.30;;
64395;SDS011;50717;53.360;6.290;2023-02-15T05:55:37;62.95;;;35.55;;
64395;SDS011;50717;53.360;6.290;2023-02-15T05:58:04;65.40;;;35.78;;
64395;SDS011;50717;53.360;6.290;2023-02-15T06:00:30;62.63;;;36.25;;
64395;SDS011;50717;53.360;6.290;2023-02-15T06:02:56;73.18;;;38.22;;
64395;SDS011;50717;53.360;6.290;2023-02-15T06:05:22;72.88;;;38.10;;
64395;SDS011;50717;53.360;6.290;2023-02-15T06:07:48;71.68;;;38.65;;
64395;SDS011;50717;53.360;6.290;2023-02-15T06:10:14;64.80;;;36.05;;
64395;SDS011;50717;53.360;6.290;2023-02-15T06:12:40;61.38;;;36.45;;
64395;SDS011;50717;53.360;6.290;2023-02-15T06:15:06;71.05;;;36.92;;
64395;SDS011;50717;53.360;6.290;2023-02-15T06:17:32;67.68;;;36.70;;
64395;SDS011;50717;53.360;6.290;2023-02-15T06:19:58;81.40;;;40.40;;
64395;SDS011;50717;53.360;6.290;2023-02-15T06:22:24;73.63;;;39.25;;
64395;SDS011;50717;53.360;6.290;2023-02-15T06:24:50;82.00;;;39.97;;
64395;SDS011;50717;53.360;6.290;2023-02-15T06:27:17;77.50;;;39.50;;
64395;SDS011;50717;53.360;6.290;2023-02-15T06:29:43;73.47;;;40.53;;
64395;SDS011;50717;53.360;6.290;2023-02-15T06:32:09;72.95;;;39.45;;
64395;SDS011;50717;53.360;6.290;2023-02-15T06:34:35;66.70;;;37.90;;
64395;SDS011;50717;53.360;6.290;2023-02-15T06:37:01;76.93;;;40.55;;
64395;SDS011;50717;53.360;6.290;2023-02-15T06:39:27;75.18;;;40.42;;
64395;SDS011;50717;53.360;6.290;2023-02-15T06:41:53;76.85;;;38.88;;
64395;SDS011;50717;53.360;6.290;2023-02-15T06:44:19;94.10;;;41.42;;
64395;SDS011;50717;53.360;6.290;2023-02-15T06:46:45;93.50;;;44.45;;
64395;SDS011;50717;53.360;6.290;2023-02-15T06:49:11;98.93;;;43.45;;
64395;SDS011;50717;53.360;6.290;2023-02-15T06:51:37;105.40;;;46.20;;
64395;SDS011;50717;53.360;6.290;2023-02-15T06:54:03;116.57;;;48.00;;
64395;SDS011;50717;53.360;6.290;2023-02-15T06:56:29;120.03;;;50.60;;
64395;SDS011;50717;53.360;6.290;2023-02-15T06:58:55;121.35;;;51.72;;
64395;SDS011;50717;53.360;6.290;2023-02-15T07:01:21;104.93;;;49.17;;
64395;SDS011;50717;53.360;6.290;2023-02-15T07:03:47;121.82;;;54.38;;
64395;SDS011;50717;53.360;6.290;2023-02-15T07:06:13;113.72;;;52.25;;
64395;SDS011;50717;53.360;6.290;2023-02-15T07:08:39;99.40;;;48.63;;
64395;SDS011;50717;53.360;6.290;2023-02-15T07:11:05;122.70;;;51.83;;
64395;SDS011;50717;53.360;6.290;2023-02-15T07:13:50;133.80;;;56.75;;
64395;SDS011;50717;53.360;6.290;2023-02-15T07:16:20;140.32;;;57.42;;
64395;SDS011;50717;53.360;6.290;2023-02-15T07:18:46;140.70;;;59.33;;
64395;SDS011;50717;53.360;6.290;2023-02-15T07:21:12;153.98;;;58.75;;
64395;SDS011;50717;53.360;6.290;2023-02-15T07:23:38;159.13;;;59.88;;
64395;SDS011;50717;53.360;6.290;2023-02-15T07:28:32;133.55;;;54.88;;
64395;SDS011;50717;53.360;6.290;2023-02-15T07:30:58;113.72;;;51.35;;
64395;SDS011;50717;53.360;6.290;2023-02-15T07:33:26;121.00;;;52.72;;
64395;SDS011;50717;53.360;6.290;2023-02-15T07:35:53;129.23;;;53.83;;
64395;SDS011;50717;53.360;6.290;2023-02-15T07:38:22;132.10;;;56.03;;
64395;SDS011;50717;53.360;6.290;2023-02-15T07:40:48;149.52;;;57.30;;
64395;SDS011;50717;53.360;6.290;2023-02-15T07:43:14;149.00;;;57.30;;
64395;SDS011;50717;53.360;6.290;2023-02-15T07:45:40;157.93;;;60.60;;
64395;SDS011;50717;53.360;6.290;2023-02-15T07:48:07;152.05;;;59.85;;
64395;SDS011;50717;53.360;6.290;2023-02-15T07:50:33;141.20;;;57.53;;
64395;SDS011;50717;53.360;6.290;2023-02-15T07:53:01;146.63;;;57.03;;
64395;SDS011;50717;53.360;6.290;2023-02-15T07:55:27;137.35;;;57.72;;
64395;SDS011;50717;53.360;6.290;2023-02-15T07:57:53;131.80;;;57.13;;
64395;SDS011;50717;53.360;6.290;2023-02-15T08:00:19;148.57;;;60.63;;
64395;SDS011;50717;53.360;6.290;2023-02-15T08:02:54;151.65;;;58.38;;
64395;SDS011;50717;53.360;6.290;2023-02-15T08:05:43;132.27;;;59.00;;
64395;SDS011;50717;53.360;6.290;2023-02-15T08:08:09;143.77;;;57.83;;
64395;SDS011;50717;53.360;6.290;2023-02-15T08:16:19;153.02;;;61.00;;
64395;SDS011;50717;53.360;6.290;2023-02-15T08:18:53;145.27;;;58.13;;
64395;SDS011;50717;53.360;6.290;2023-02-15T08:23:45;144.82;;;58.03;;
64395;SDS011;50717;53.360;6.290;2023-02-15T08:26:11;142.32;;;60.80;;
64395;SDS011;50717;53.360;6.290;2023-02-15T08:28:37;162.32;;;62.95;;
64395;SDS011;50717;53.360;6.290;2023-02-15T08:31:04;145.43;;;58.80;;
64395;SDS011;50717;53.360;6.290;2023-02-15T08:33:30;154.10;;;63.17;;
64395;SDS011;50717;53.360;6.290;2023-02-15T08:35:56;142.82;;;58.70;;
64395;SDS011;50717;53.360;6.290;2023-02-15T08:40:49;155.25;;;60.78;;
64395;SDS011;50717;53.360;6.290;2023-02-15T08:43:15;152.15;;;63.13;;
64395;SDS011;50717;53.360;6.290;2023-02-15T08:45:41;161.05;;;66.28;;
64395;SDS011;50717;53.360;6.290;2023-02-15T08:48:06;147.68;;;64.07;;
64395;SDS011;50717;53.360;6.290;2023-02-15T08:50:32;147.98;;;64.68;;
64395;SDS011;50717;53.360;6.290;2023-02-15T08:52:58;154.07;;;63.63;;
64395;SDS011;50717;53.360;6.290;2023-02-15T08:55:23;166.88;;;65.97;;
64395;SDS011;50717;53.360;6.290;2023-02-15T08:57:50;150.68;;;65.60;;
64395;SDS011;50717;53.360;6.290;2023-02-15T09:00:16;150.17;;;66.90;;
64395;SDS011;50717;53.360;6.290;2023-02-15T09:02:42;144.32;;;64.47;;
64395;SDS011;50717;53.360;6.290;2023-02-15T09:05:08;145.60;;;65.07;;
64395;SDS011;50717;53.360;6.290;2023-02-15T09:07:34;147.25;;;62.80;;
64395;SDS011;50717;53.360;6.290;2023-02-15T09:09:59;140.63;;;61.25;;
64395;SDS011;50717;53.360;6.290;2023-02-15T09:12:25;135.90;;;62.10;;
64395;SDS011;50717;53.360;6.290;2023-02-15T09:14:51;138.03;;;61.57;;
64395;SDS011;50717;53.360;6.290;2023-02-15T09:17:16;134.00;;;61.73;;
64395;SDS011;50717;53.360;6.290;2023-02-15T09:19:42;140.15;;;60.70;;
64395;SDS011;50717;53.360;6.290;2023-02-15T09:22:08;139.05;;;61.85;;
64395;SDS011;50717;53.360;6.290;2023-02-15T09:24:34;132.68;;;61.25;;
64395;SDS011;50717;53.360;6.290;2023-02-15T09:27:00;129.75;;;59.88;;
64395;SDS011;50717;53.360;6.290;2023-02-15T09:29:26;134.43;;;62.23;;
64395;SDS011;50717;53.360;6.290;2023-02-15T09:31:51;123.95;;;59.50;;
64395;SDS011;50717;53.360;6.290;2023-02-15T09:34:19;129.77;;;59.78;;
64395;SDS011;50717;53.360;6.290;2023-02-15T09:36:46;126.22;;;59.47;;
64395;SDS011;50717;53.360;6.290;2023-02-15T09:52:12;105.35;;;53.72;;
64395;SDS011;50717;53.360;6.290;2023-02-15T10:02:35;97.63;;;49.70;;
64395;SDS011;50717;53.360;6.290;2023-02-15T10:10:41;88.00;;;47.97;;
64395;SDS011;50717;53.360;6.290;2023-02-15T10:17:00;96.70;;;48.35;;
64395;SDS011;50717;53.360;6.290;2023-02-15T10:27:54;88.70;;;46.03;;
64395;SDS011;50717;53.360;6.290;2023-02-15T10:30:27;84.15;;;44.80;;
64395;SDS011;50717;53.360;6.290;2023-02-15T10:36:15;77.18;;;43.42;;
64395;SDS011;50717;53.360;6.290;2023-02-15T10:38:58;80.82;;;42.20;;
64395;SDS011;50717;53.360;6.290;2023-02-15T10:41:51;84.22;;;45.63;;
64395;SDS011;50717;53.360;6.290;2023-02-15T10:49:30;84.95;;;43.85;;
64395;SDS011;50717;53.360;6.290;2023-02-15T11:08:25;72.82;;;40.72;;
64395;SDS011;50717;53.360;6.290;2023-02-15T11:10:59;75.65;;;41.33;;
64395;SDS011;50717;53.360;6.290;2023-02-15T11:13:32;74.22;;;41.47;;
64395;SDS011;50717;53.360;6.290;2023-02-15T11:16:24;74.13;;;40.80;;
64395;SDS011;50717;53.360;6.290;2023-02-15T11:18:54;74.88;;;39.78;;
64395;SDS011;50717;53.360;6.290;2023-02-15T11:24:14;75.45;;;42.00;;
64395;SDS011;50717;53.360;6.290;2023-02-15T11:29:13;78.82;;;39.63;;
64395;SDS011;50717;53.360;6.290;2023-02-15T11:31:44;75.30;;;38.90;;
64395;SDS011;50717;53.360;6.290;2023-02-15T11:34:19;76.45;;;37.83;;
64395;SDS011;50717;53.360;6.290;2023-02-15T11:36:52;74.35;;;38.85;;
64395;SDS011;50717;53.360;6.290;2023-02-15T11:39:20;71.72;;;40.03;;
64395;SDS011;50717;53.360;6.290;2023-02-15T11:41:49;72.75;;;40.17;;
64395;SDS011;50717;53.360;6.290;2023-02-15T11:44:23;69.80;;;38.88;;
64395;SDS011;50717;53.360;6.290;2023-02-15T11:46:57;78.18;;;38.42;;
64395;SDS011;50717;53.360;6.290;2023-02-15T11:51:55;83.25;;;39.05;;
64395;SDS011;50717;53.360;6.290;2023-02-15T11:54:26;76.97;;;38.20;;
64395;SDS011;50717;53.360;6.290;2023-02-15T11:56:55;74.95;;;38.25;;
64395;SDS011;50717;53.360;6.290;2023-02-15T11:59:31;68.50;;;35.30;;
64395;SDS011;50717;53.360;6.290;2023-02-15T12:02:01;72.18;;;35.10;;
64395;SDS011;50717;53.360;6.290;2023-02-15T12:04:35;67.70;;;37.00;;
64395;SDS011;50717;53.360;6.290;2023-02-15T12:07:43;68.75;;;35.22;;
64395;SDS011;50717;53.360;6.290;2023-02-15T12:10:20;65.38;;;34.47;;
64395;SDS011;50717;53.360;6.290;2023-02-15T12:13:07;64.20;;;33.67;;
64395;SDS011;50717;53.360;6.290;2023-02-15T12:15:35;64.35;;;33.05;;
64395;SDS011;50717;53.360;6.290;2023-02-15T12:18:01;63.22;;;33.00;;
64395;SDS011;50717;53.360;6.290;2023-02-15T12:22:59;69.00;;;42.17;;
64395;SDS011;50717;53.360;6.290;2023-02-15T12:25:29;68.78;;;37.38;;
64395;SDS011;50717;53.360;6.290;2023-02-15T12:27:58;57.03;;;32.53;;
64395;SDS011;50717;53.360;6.290;2023-02-15T12:33:43;68.05;;;34.97;;
64395;SDS011;50717;53.360;6.290;2023-02-15T12:36:00;62.33;;;32.95;;
64395;SDS011;50717;53.360;6.290;2023-02-15T12:38:35;60.85;;;33.58;;
64395;SDS011;50717;53.360;6.290;2023-02-15T12:41:10;61.85;;;33.60;;
64395;SDS011;50717;53.360;6.290;2023-02-15T12:44:15;63.60;;;34.15;;
64395;SDS011;50717;53.360;6.290;2023-02-15T12:49:40;59.33;;;32.22;;
64395;SDS011;50717;53.360;6.290;2023-02-15T12:54:45;57.85;;;32.17;;
64395;SDS011;50717;53.360;6.290;2023-02-15T12:59:57;58.42;;;31.58;;
64395;SDS011;50717;53.360;6.290;2023-02-15T13:04:54;54.13;;;30.48;;
64395;SDS011;50717;53.360;6.290;2023-02-15T13:07:22;60.20;;;31.98;;
64395;SDS011;50717;53.360;6.290;2023-02-15T13:09:50;56.15;;;30.55;;
64395;SDS011;50717;53.360;6.290;2023-02-15T13:12:26;58.22;;;31.48;;
64395;SDS011;50717;53.360;6.290;2023-02-15T13:14:55;59.33;;;31.35;;
64395;SDS011;50717;53.360;6.290;2023-02-15T13:17:29;55.88;;;31.55;;
64395;SDS011;50717;53.360;6.290;2023-02-15T13:20:05;54.92;;;30.80;;
64395;SDS011;50717;53.360;6.290;2023-02-15T13:22:43;55.72;;;32.58;;
64395;SDS011;50717;53.360;6.290;2023-02-15T13:25:13;61.88;;;33.45;;
64395;SDS011;50717;53.360;6.290;2023-02-15T13:27:46;59.47;;;32.90;;
64395;SDS011;50717;53.360;6.290;2023-02-15T13:30:24;61.92;;;33.58;;
64395;SDS011;50717;53.360;6.290;2023-02-15T13:36:00;60.83;;;34.00;;
64395;SDS011;50717;53.360;6.290;2023-02-15T13:38:52;64.05;;;34.58;;
64395;SDS011;50717;53.360;6.290;2023-02-15T13:41:33;67.37;;;35.13;;
64395;SDS011;50717;53.360;6.290;2023-02-15T13:44:25;67.60;;;35.33;;
64395;SDS011;50717;53.360;6.290;2023-02-15T13:46:59;58.00;;;32.97;;
64395;SDS011;50717;53.360;6.290;2023-02-15T13:52:24;58.50;;;34.28;;
64395;SDS011;50717;53.360;6.290;2023-02-15T13:54:56;60.28;;;32.30;;
64395;SDS011;50717;53.360;6.290;2023-02-15T14:16:48;64.88;;;34.65;;
64395;SDS011;50717;53.360;6.290;2023-02-15T14:19:40;61.00;;;34.65;;
64395;SDS011;50717;53.360;6.290;2023-02-15T14:22:21;67.10;;;35.83;;
64395;SDS011;50717;53.360;6.290;2023-02-15T14:25:17;60.58;;;34.47;;
64395;SDS011;50717;53.360;6.290;2023-02-15T14:28:03;64.13;;;35.25;;
64395;SDS011;50717;53.360;6.290;2023-02-15T14:30:38;67.55;;;36.40;;
64395;SDS011;50717;53.360;6.290;2023-02-15T14:35:57;64.97;;;36.20;;
64395;SDS011;50717;53.360;6.290;2023-02-15T14:41:18;67.63;;;36.50;;
64395;SDS011;50717;53.360;6.290;2023-02-15T14:49:11;65.40;;;34.55;;
64395;SDS011;50717;53.360;6.290;2023-02-15T14:54:07;60.85;;;34.42;;
64395;SDS011;50717;53.360;6.290;2023-02-15T14:56:42;60.03;;;31.90;;
64395;SDS011;50717;53.360;6.290;2023-02-15T14:59:21;69.78;;;34.20;;
64395;SDS011;50717;53.360;6.290;2023-02-15T15:04:24;63.60;;;34.58;;
64395;SDS011;50717;53.360;6.290;2023-02-15T15:09:33;62.17;;;34.03;;
64395;SDS011;50717;53.360;6.290;2023-02-15T15:13:34;59.60;;;33.88;;
64395;SDS011;50717;53.360;6.290;2023-02-15T15:14:58;65.28;;;35.50;;
64395;SDS011;50717;53.360;6.290;2023-02-15T15:18:10;64.47;;;34.55;;
64395;SDS011;50717;53.360;6.290;2023-02-15T15:25:43;59.60;;;30.33;;
64395;SDS011;50717;53.360;6.290;2023-02-15T15:28:52;58.47;;;30.00;;
64395;SDS011;50717;53.360;6.290;2023-02-15T15:33:45;59.03;;;30.92;;
64395;SDS011;50717;53.360;6.290;2023-02-15T15:50:23;59.85;;;30.85;;
64395;SDS011;50717;53.360;6.290;2023-02-15T15:52:57;59.55;;;31.92;;
64395;SDS011;50717;53.360;6.290;2023-02-15T15:55:27;60.08;;;31.08;;
64395;SDS011;50717;53.360;6.290;2023-02-15T15:57:57;56.33;;;31.35;;
64395;SDS011;50717;53.360;6.290;2023-02-15T16:00:32;64.00;;;31.55;;
64395;SDS011;50717;53.360;6.290;2023-02-15T16:03:12;61.97;;;31.85;;
64395;SDS011;50717;53.360;6.290;2023-02-15T16:05:49;56.55;;;32.13;;
64395;SDS011;50717;53.360;6.290;2023-02-15T16:08:52;61.75;;;33.63;;
64395;SDS011;50717;53.360;6.290;2023-02-15T16:11:16;65.07;;;34.13;;
64395;SDS011;50717;53.360;6.290;2023-02-15T16:13:52;57.30;;;31.42;;
64395;SDS011;50717;53.360;6.290;2023-02-15T16:16:22;60.90;;;31.00;;
64395;SDS011;50717;53.360;6.290;2023-02-15T16:18:52;61.42;;;31.55;;
64395;SDS011;50717;53.360;6.290;2023-02-15T16:21:21;62.78;;;31.92;;
64395;SDS011;50717;53.360;6.290;2023-02-15T16:24:15;62.78;;;32.53;;
64395;SDS011;50717;53.360;6.290;2023-02-15T16:29:36;59.45;;;32.22;;
64395;SDS011;50717;53.360;6.290;2023-02-15T16:32:14;72.65;;;33.33;;
64395;SDS011;50717;53.360;6.290;2023-02-15T16:35:12;62.15;;;30.08;;
64395;SDS011;50717;53.360;6.290;2023-02-15T16:37:39;62.83;;;31.98;;
64395;SDS011;50717;53.360;6.290;2023-02-15T16:40:05;60.88;;;31.48;;
64395;SDS011;50717;53.360;6.290;2023-02-15T16:42:31;62.42;;;33.13;;
64395;SDS011;50717;53.360;6.290;2023-02-15T16:47:33;65.68;;;32.72;;
64395;SDS011;50717;53.360;6.290;2023-02-15T16:50:05;65.63;;;32.50;;
64395;SDS011;50717;53.360;6.290;2023-02-15T16:52:31;67.18;;;33.17;;
64395;SDS011;50717;53.360;6.290;2023-02-15T16:54:58;66.22;;;33.55;;
64395;SDS011;50717;53.360;6.290;2023-02-15T16:57:34;68.28;;;34.13;;
64395;SDS011;50717;53.360;6.290;2023-02-15T17:00:14;67.55;;;33.13;;
64395;SDS011;50717;53.360;6.290;2023-02-15T17:02:52;64.18;;;33.08;;
64395;SDS011;50717;53.360;6.290;2023-02-15T17:05:20;67.68;;;32.97;;
64395;SDS011;50717;53.360;6.290;2023-02-15T17:12:55;69.60;;;38.15;;
64395;SDS011;50717;53.360;6.290;2023-02-15T17:15:35;69.95;;;38.20;;
64395;SDS011;50717;53.360;6.290;2023-02-15T17:18:03;78.50;;;38.88;;
64395;SDS011;50717;53.360;6.290;2023-02-15T17:20:32;72.15;;;39.08;;
64395;SDS011;50717;53.360;6.290;2023-02-15T17:22:58;70.30;;;38.70;;
64395;SDS011;50717;53.360;6.290;2023-02-15T17:25:26;72.75;;;40.13;;
64395;SDS011;50717;53.360;6.290;2023-02-15T17:28:00;72.38;;;39.28;;
64395;SDS011;50717;53.360;6.290;2023-02-15T17:30:27;71.60;;;39.90;;
64395;SDS011;50717;53.360;6.290;2023-02-15T17:32:59;72.28;;;39.03;;
64395;SDS011;50717;53.360;6.290;2023-02-15T17:35:31;82.63;;;39.60;;
64395;SDS011;50717;53.360;6.290;2023-02-15T17:40:27;75.50;;;40.90;;
64395;SDS011;50717;53.360;6.290;2023-02-15T17:42:55;74.32;;;41.05;;
64395;SDS011;50717;53.360;6.290;2023-02-15T17:45:22;70.28;;;38.28;;
64395;SDS011;50717;53.360;6.290;2023-02-15T17:47:51;78.18;;;39.25;;
64395;SDS011;50717;53.360;6.290;2023-02-15T17:50:21;80.35;;;40.90;;
64395;SDS011;50717;53.360;6.290;2023-02-15T17:52:48;78.32;;;41.03;;
64395;SDS011;50717;53.360;6.290;2023-02-15T17:55:17;76.28;;;40.38;;
64395;SDS011;50717;53.360;6.290;2023-02-15T17:57:59;78.68;;;42.00;;
64395;SDS011;50717;53.360;6.290;2023-02-15T18:00:28;84.88;;;41.05;;
64395;SDS011;50717;53.360;6.290;2023-02-15T18:03:17;76.50;;;41.63;;
64395;SDS011;50717;53.360;6.290;2023-02-15T18:06:01;77.13;;;42.17;;
64395;SDS011;50717;53.360;6.290;2023-02-15T18:08:46;79.57;;;41.42;;
64395;SDS011;50717;53.360;6.290;2023-02-15T18:11:30;84.20;;;40.90;;
64395;SDS011;50717;53.360;6.290;2023-02-15T18:14:06;73.68;;;41.35;;